South Reno (Wolf Run), Nevada Weather observations

Data are for observation ending at time listed.
 Day   Time    Ave.   Ave.  Ave.  Vector   Max.   Stn.    Total    Solar   Ave.  
  of    of     Air    Rel.  Wind   Wind    Wind   Baro.  Precip.   Rad.    Soil  
Year   Day     Temp.  Hum.  Speed  Dir.    Gust   Pres.                    Temp. 
2026   (PST)    F      %     mph   deg.    mph     mb.     in.     W/m2     F   
------------------------------------------------------------------------------
 128   18:40   69.0    24    0.0     0      0.0  99999.0    0.00       3    68.8
 128   18:50   67.5    24    0.0   304      0.4  99999.0    0.00       3    68.8
 128   19:00   66.6    24    0.0   292      1.6  99999.0    0.00       3    68.7
 128   19:10   65.8    26    0.2   283      3.7  99999.0    0.00       2    68.7
 128   19:20   65.3    28    0.0   234      1.7  99999.0    0.00       1    68.6
 128   19:30   64.6    32    0.3   259      3.7  99999.0    0.00       0    68.6
 128   19:40   63.2    37    0.3   259      7.6  99999.0    0.00       0    68.5
 128   19:50   62.3    40    0.2   256      3.7  99999.0    0.00       0    68.5
 128   20:00   60.7    42    0.2   252      1.5  99999.0    0.00       0    68.5
 128   20:10   60.5    40    1.3    94      5.6  99999.0    0.00       0    68.3
 128   20:20   60.4    48    0.7   172      3.9  99999.0    0.00       0    67.8
 128   20:30   59.7    40    2.5   232      4.9  99999.0    0.00       0    66.2
 128   20:40   58.7    40    3.7   240      6.0  99999.0    0.00       0    66.1
 128   20:50   58.7    40    1.8   231      4.2  99999.0    0.00       0    66.0
 128   21:00   59.6    38    1.9   234      4.7  99999.0    0.00       1    65.9
 128   21:10   58.9    40    1.5   238      3.9  99999.0    0.00       1    65.9
 128   21:20   58.6    38    1.1   244      4.2  99999.0    0.00       1    65.9
 128   21:30   57.8    39    0.8   244      2.9  99999.0    0.00       1    65.9
 128   21:40   58.1    38    2.0   238      4.2  99999.0    0.00       0    66.1
 128   21:50   58.5    37    0.1   253      2.3  99999.0    0.00       1    66.1
 128   22:00   57.3    39    1.6   246      3.7  99999.0    0.00       1    66.1
 128   22:10   56.6    41    1.2   244      3.4  99999.0    0.00       1    66.2
 128   22:20   55.7    44    1.4   243      3.4  99999.0    0.00       1    66.1
 128   22:30   54.2    49    1.9   240      4.3  99999.0    0.00       1    66.1
 128   22:40   54.9    48    4.3   242      6.1  99999.0    0.00       0    66.0
 128   22:50   56.0    45    5.1   236      6.5  99999.0    0.00       0    65.9
 128   23:00   56.6    41    4.5   238      6.5  99999.0    0.00       0    65.8
 128   23:10   56.5    42    4.2   238      6.1  99999.0    0.00       0    65.7
 128   23:20   55.8    44    3.8   236      6.3  99999.0    0.00       0    65.6
 128   23:30   55.9    44    2.4   241      5.0  99999.0    0.00       0    65.5
 128   23:40   54.1    48    1.5   243      3.4  99999.0    0.00       0    65.5
 128   23:50   53.2    52    1.1   244      3.4  99999.0    0.00       0    65.4
 129    0:00   53.1    52    1.0   242      3.3  99999.0    0.00       0    65.3
 129    0:10   53.2    51    2.1   242      3.9  99999.0    0.00       0    65.2
 129    0:20   52.9    52    1.3   239      3.3  99999.0    0.00       0    65.1
 129    0:30   52.9    52    2.1   240      3.5  99999.0    0.00       0    65.0
 129    0:40   52.7    53    1.3   241      3.2  99999.0    0.00       0    65.0
 129    0:50   52.9    52    2.2   244      3.9  99999.0    0.00       0    64.9
 129    1:00   52.9    52    2.5   235      4.5  99999.0    0.00       0    64.8
 129    1:10   52.5    53    2.4   243      3.9  99999.0    0.00       0    64.7
 129    1:20   52.2    53    3.7   237      5.0  99999.0    0.00       0    64.6
 129    1:30   52.2    53    2.8   236      4.4  99999.0    0.00       0    64.5
 129    1:40   52.0    54    3.0   239      4.9  99999.0    0.00       0    64.4
 129    1:50   51.4    56    2.5   240      4.1  99999.0    0.00       0    64.4
 129    2:00   51.9    54    3.0   237      4.9  99999.0    0.00       0    64.3
 129    2:10   51.8    54    3.0   240      4.7  99999.0    0.00       0    64.2
 129    2:20   51.9    54    2.6   241      4.5  99999.0    0.00       0    64.1
 129    2:30   51.5    55    2.1   242      4.2  99999.0    0.00       0    64.0
 129    2:40   51.0    55    2.8   238      4.5  99999.0    0.00       0    64.0
 129    2:50   51.6    53    2.8   240      5.0  99999.0    0.00       0    63.9
 129    3:00   51.5    52    3.6   237      5.9  99999.0    0.00       0    63.8
 129    3:10   52.4    50    4.4   237      5.8  99999.0    0.00       0    63.7
 129    3:20   52.0    51    3.6   237      5.3  99999.0    0.00       0    63.6
 129    3:30   52.1    50    4.3   238      6.2  99999.0    0.00       0    63.6
 129    3:40   51.9    51    3.1   241      4.5  99999.0    0.00       0    63.5
 129    3:50   50.0    56    1.8   245      2.9  99999.0    0.00       0    63.4
 129    4:00   49.8    55    2.6   236      4.5  99999.0    0.00       0    63.4
 129    4:10   50.7    52    2.3   234      3.9  99999.0    0.00       0    63.3
 129    4:20   50.6    51    1.7   239      4.2  99999.0    0.00       0    63.2
 129    4:30   50.3    50    2.1   243      3.9  99999.0    0.00       0    63.1
 129    4:40   50.4    50    2.1   242      3.8  99999.0    0.00       1    63.1
 129    4:50   50.2    49    2.1   241      4.2  99999.0    0.00       2    63.0
 129    5:00   49.5    50    0.9   245      2.9  99999.0    0.00       3    63.0
 129    5:10   49.5    49    0.3   247      3.0  99999.0    0.00       3    62.9
 129    5:20   50.4    49    0.5   239      2.3  99999.0    0.00       3    62.8
 129    5:30   52.0    50    0.0   244      1.2  99999.0    0.00       3    62.7
 129    5:40   53.5    48    0.1   303      1.4  99999.0    0.00       3    62.7
 129    5:50   55.6    47    0.0    84      1.4  99999.0    0.00       4    62.5
 129    6:00   57.9    45    1.0    58      2.4  99999.0    0.00       4    62.4
 129    6:10   58.5    46    0.4    52      3.1  99999.0    0.00       4    62.3
 129    6:20   61.7    40    0.0     0      0.0  99999.0    0.00       4    62.3
 129    6:30   61.8    40    0.0    37      0.9  99999.0    0.00       4    62.2
 129    6:40   62.7    40    0.0     0      0.0  99999.0    0.00       4    62.1
 129    6:50   62.5    40    0.0   342      0.9  99999.0    0.00       4    62.0
 129    7:00   61.1    44    0.4   351      1.5  99999.0    0.00       4    62.0
 129    7:10   61.7    45    1.1    91      4.7  99999.0    0.00       4    61.9
 129    7:20   62.2    43    1.8    88      5.0  99999.0    0.00       4    61.9
 129    7:30   62.8    41    0.6    54      3.4  99999.0    0.00       5    61.8
 129    7:40   63.7    38    0.6    46      2.2  99999.0    0.00       5    61.8
 129    7:50   64.0    37    0.6    16      2.1  99999.0    0.00       5    61.7
 129    8:00   64.8    37    0.3   348      1.8  99999.0    0.00       6    61.7
 129    8:10   66.3    32    1.6    35      4.4  99999.0    0.00       6    61.6
 129    8:20   67.2    32    1.0     4      4.0  99999.0    0.00       7    61.6
 129    8:30   67.2    30    1.5    56      4.4  99999.0    0.00       7    61.5
 129    8:40   67.8    30    1.9    24      5.6  99999.0    0.00       7    61.4
 129    8:50   68.3    27    0.9     4      3.8  99999.0    0.00       7    61.4
 129    9:00   69.7    26    1.2    38      5.3  99999.0    0.00       7    61.4
 129    9:10   69.5    26    1.1    16      4.4  99999.0    0.00       7    61.3
 129    9:20   70.0    26    0.7     5      3.5  99999.0    0.00       7    61.3
 129    9:30   70.8    25    1.5     2      5.2  99999.0    0.00       7    61.2
 129    9:40   72.3    23    0.9    27      5.1  99999.0    0.00       8    61.2
 129    9:50   72.0    23    1.3   340      5.7  99999.0    0.00       7    61.1
 129   10:00   70.9    22    2.7    14      5.5  99999.0    0.00       7    61.2
 129   10:10   72.6    22    1.5    44      5.3  99999.0    0.00       8    61.2
 129   10:20   73.5    21    2.0     1      5.3  99999.0    0.00       8    61.1
 129   10:30   74.4    21    2.7    82      8.3  99999.0    0.00       8    61.1
 129   10:40   75.0    19    1.2   218      4.7  99999.0    0.00       8    61.0
 129   10:50   71.9    21    2.9   284      6.6  99999.0    0.00       8    61.1
 129   11:00   75.0    19    1.5    43      5.3  99999.0    0.00       8    61.1
 129   11:10   75.8    19    2.1    55      6.6  99999.0    0.00       9    61.2
 129   11:20   75.5    19    1.8    24      7.7  99999.0    0.00       8    61.4
 129   11:30   76.4    18    1.8    40      5.2  99999.0    0.00       9    61.5
 129   11:40   76.4    17    2.6    73      9.3  99999.0    0.00       9    61.8
 129   11:50   77.5    18    1.2    90      4.0  99999.0    0.00       9    62.0
 129   12:00   78.0    16    1.3    40      5.7  99999.0    0.00       9    62.1
 129   12:10   77.6    16    2.0   191      4.9  99999.0    0.00       9    62.3
 129   12:20   77.6    17    1.4   133      5.2  99999.0    0.00       9    62.6
 129   12:30   77.7    14    2.4    49      6.7  99999.0    0.00       9    62.8
 129   12:40   77.9    16    2.2    65      7.8  99999.0    0.00       9    63.0
 129   12:50   78.0    14    3.3    76      8.4  99999.0    0.00       9    63.2
 129   13:00   79.0    16    2.7   155      7.7  99999.0    0.00       9    63.4
 129   13:10   80.0    14    3.2   108      6.9  99999.0    0.00       9    63.7
 129   13:20   80.9    14    0.9    29      3.7  99999.0    0.00       9    63.7
 129   13:30   81.1    14    1.6    11      7.1  99999.0    0.00      10    64.1
 129   13:40   81.6    14    2.4   109      6.1  99999.0    0.00      10    64.5
 129   13:50   81.8    13    1.4    58      6.3  99999.0    0.00      10    64.8
 129   14:00   82.4    14    0.8   320      5.5  99999.0    0.00      10    65.1
 129   14:10   82.5    13    0.9    39      4.9  99999.0    0.00      11    65.4
 129   14:20   82.0    12    3.3    80      7.4  99999.0    0.00      10    65.8
 129   14:30   81.6    12    2.7    73      9.0  99999.0    0.00      10    66.1
 129   14:40   82.4    12    2.0   140      5.5  99999.0    0.00      10    66.4
 129   14:50   82.7    11    2.4    67      6.9  99999.0    0.00       9    66.7
 129   15:00   82.3    11    2.9    74      7.1  99999.0    0.00       9    66.9
 129   15:10   83.4    12    2.3    98      8.5  99999.0    0.00       9    67.1
 129   15:20   82.6    12    0.8   122      4.9  99999.0    0.00       9    67.4
 129   15:30   83.2    11    2.4    17      6.1  99999.0    0.00       9    67.6
 129   15:40   83.1    10    2.5    57      6.0  99999.0    0.00       9    67.8
 129   15:50   83.8    12    0.6   218      3.5  99999.0    0.00       9    68.0
 129   16:00   83.3    12    1.6   337      6.1  99999.0    0.00       9    68.1
 129   16:10   82.7    13    0.5   254      3.8  99999.0    0.00       9    68.4
 129   16:20   83.5    11    1.3     5      5.6  99999.0    0.00       9    68.5
 129   16:30   83.1    10    2.5    36      6.4  99999.0    0.00       8    68.7
 129   16:40   82.6    10    2.4    35      5.1  99999.0    0.00       7    68.8
 129   16:50   81.5    10    2.2    28      6.2  99999.0    0.00       7    69.0
 129   17:00   82.6     9    1.2     6      3.5  99999.0    0.00       7    69.2
 129   17:10   81.3    10    0.5   210      2.8  99999.0    0.00       7    69.3
 129   17:20   79.6    11    1.7    73      5.6  99999.0    0.00       6    69.4
 129   17:30   80.0    10    2.5    69      6.4  99999.0    0.00       5    69.5
 129   17:40   79.9    10    2.3    89      6.1  99999.0    0.00       5    69.5
 129   17:50   80.6    11    0.8    71      3.9  99999.0    0.00       6    69.6
 129   18:00   79.6    10    1.8    76      4.6  99999.0    0.00       6    69.7
 129   18:10   77.9    10    2.7    75      5.7  99999.0    0.00       5    69.7
 129   18:20   76.3    10    1.8    74      4.4  99999.0    0.00       4    69.7
 129   18:30   75.0    12    0.5   101      3.3  99999.0    0.00       3    69.7

Return to South Reno, Nevada graphs page.


Western Regional Climate Center,wrcc@dri.edu